sensor_id;sensor_type;location;lat;lon;timestamp;temperature;humidity
12959;DHT22;6544;51.666;6.634;2023-07-08T00:00:20;21.40;99.90
12959;DHT22;6544;51.666;6.634;2023-07-08T00:02:47;21.30;99.90
12959;DHT22;6544;51.666;6.634;2023-07-08T00:05:17;21.40;99.90
12959;DHT22;6544;51.666;6.634;2023-07-08T00:07:44;21.40;99.90
12959;DHT22;6544;51.666;6.634;2023-07-08T00:10:13;21.20;99.90
12959;DHT22;6544;51.666;6.634;2023-07-08T00:12:41;21.20;99.90
12959;DHT22;6544;51.666;6.634;2023-07-08T00:15:08;21.20;99.90
12959;DHT22;6544;51.666;6.634;2023-07-08T00:17:35;21.30;99.90
12959;DHT22;6544;51.666;6.634;2023-07-08T00:20:12;21.20;99.90
12959;DHT22;6544;51.666;6.634;2023-07-08T00:22:41;21.20;99.90
12959;DHT22;6544;51.666;6.634;2023-07-08T00:25:08;21.20;99.90
12959;DHT22;6544;51.666;6.634;2023-07-08T00:27:35;21.20;99.90
12959;DHT22;6544;51.666;6.634;2023-07-08T00:30:15;21.10;99.90
12959;DHT22;6544;51.666;6.634;2023-07-08T00:32:43;21.20;99.90
12959;DHT22;6544;51.666;6.634;2023-07-08T00:35:11;21.20;99.90
12959;DHT22;6544;51.666;6.634;2023-07-08T00:37:38;21.10;99.90
12959;DHT22;6544;51.666;6.634;2023-07-08T00:40:15;21.10;99.90
12959;DHT22;6544;51.666;6.634;2023-07-08T00:42:44;21.10;99.90
12959;DHT22;6544;51.666;6.634;2023-07-08T00:45:32;21.20;99.90
12959;DHT22;6544;51.666;6.634;2023-07-08T00:48:07;21.10;99.90
12959;DHT22;6544;51.666;6.634;2023-07-08T00:50:35;20.90;99.90
12959;DHT22;6544;51.666;6.634;2023-07-08T00:53:25;20.90;99.90
12959;DHT22;6544;51.666;6.634;2023-07-08T00:55:56;21.00;99.90
12959;DHT22;6544;51.666;6.634;2023-07-08T00:58:26;21.00;99.90
12959;DHT22;6544;51.666;6.634;2023-07-08T01:00:54;21.10;99.90
12959;DHT22;6544;51.666;6.634;2023-07-08T01:03:23;21.00;99.90
12959;DHT22;6544;51.666;6.634;2023-07-08T01:05:53;21.10;99.90
12959;DHT22;6544;51.666;6.634;2023-07-08T01:08:26;21.10;99.90
12959;DHT22;6544;51.666;6.634;2023-07-08T01:11:00;21.20;99.90
12959;DHT22;6544;51.666;6.634;2023-07-08T01:13:31;21.20;99.90
12959;DHT22;6544;51.666;6.634;2023-07-08T01:15:59;21.20;99.90
12959;DHT22;6544;51.666;6.634;2023-07-08T01:18:26;21.10;99.90
12959;DHT22;6544;51.666;6.634;2023-07-08T01:20:54;21.00;99.90
12959;DHT22;6544;51.666;6.634;2023-07-08T01:23:23;21.00;99.90
12959;DHT22;6544;51.666;6.634;2023-07-08T01:25:51;21.00;99.90
12959;DHT22;6544;51.666;6.634;2023-07-08T01:28:18;21.00;99.90
12959;DHT22;6544;51.666;6.634;2023-07-08T01:30:46;21.00;99.90
12959;DHT22;6544;51.666;6.634;2023-07-08T01:33:18;21.00;99.90
12959;DHT22;6544;51.666;6.634;2023-07-08T01:35:46;21.00;99.90
12959;DHT22;6544;51.666;6.634;2023-07-08T01:38:17;21.10;99.90
12959;DHT22;6544;51.666;6.634;2023-07-08T01:40:51;21.10;99.90
12959;DHT22;6544;51.666;6.634;2023-07-08T01:43:19;20.90;99.90
12959;DHT22;6544;51.666;6.634;2023-07-08T01:45:47;20.90;99.90
12959;DHT22;6544;51.666;6.634;2023-07-08T01:48:17;20.90;99.90
12959;DHT22;6544;51.666;6.634;2023-07-08T01:50:47;21.00;99.90
12959;DHT22;6544;51.666;6.634;2023-07-08T01:53:16;21.10;99.90
12959;DHT22;6544;51.666;6.634;2023-07-08T01:55:43;21.10;99.90
12959;DHT22;6544;51.666;6.634;2023-07-08T01:58:11;21.10;99.90
12959;DHT22;6544;51.666;6.634;2023-07-08T02:00:38;21.10;99.90
12959;DHT22;6544;51.666;6.634;2023-07-08T02:03:05;21.10;99.90
12959;DHT22;6544;51.666;6.634;2023-07-08T02:05:32;21.20;99.90
12959;DHT22;6544;51.666;6.634;2023-07-08T02:07:59;21.10;99.90
12959;DHT22;6544;51.666;6.634;2023-07-08T02:10:26;21.20;99.90
12959;DHT22;6544;51.666;6.634;2023-07-08T02:12:53;21.10;99.90
12959;DHT22;6544;51.666;6.634;2023-07-08T02:15:21;21.10;99.90
12959;DHT22;6544;51.666;6.634;2023-07-08T02:17:48;21.10;99.90
12959;DHT22;6544;51.666;6.634;2023-07-08T02:20:16;21.10;99.90
12959;DHT22;6544;51.666;6.634;2023-07-08T02:22:43;21.10;99.90
12959;DHT22;6544;51.666;6.634;2023-07-08T02:25:09;21.10;99.90
12959;DHT22;6544;51.666;6.634;2023-07-08T02:27:39;21.10;99.90
12959;DHT22;6544;51.666;6.634;2023-07-08T02:30:07;21.10;99.90
12959;DHT22;6544;51.666;6.634;2023-07-08T02:32:36;21.10;99.90
12959;DHT22;6544;51.666;6.634;2023-07-08T02:35:05;21.00;99.90
12959;DHT22;6544;51.666;6.634;2023-07-08T02:37:32;20.90;99.90
12959;DHT22;6544;51.666;6.634;2023-07-08T02:39:59;20.80;99.90
12959;DHT22;6544;51.666;6.634;2023-07-08T02:42:26;20.70;99.90
12959;DHT22;6544;51.666;6.634;2023-07-08T02:44:53;20.70;99.90
12959;DHT22;6544;51.666;6.634;2023-07-08T02:47:20;20.80;99.90
12959;DHT22;6544;51.666;6.634;2023-07-08T02:49:49;20.80;99.90
12959;DHT22;6544;51.666;6.634;2023-07-08T02:52:16;20.90;99.90
12959;DHT22;6544;51.666;6.634;2023-07-08T02:54:43;21.00;99.90
12959;DHT22;6544;51.666;6.634;2023-07-08T02:57:09;20.90;99.90
12959;DHT22;6544;51.666;6.634;2023-07-08T02:59:36;20.90;99.90
12959;DHT22;6544;51.666;6.634;2023-07-08T03:02:04;20.90;99.90
12959;DHT22;6544;51.666;6.634;2023-07-08T03:04:30;20.80;99.90
12959;DHT22;6544;51.666;6.634;2023-07-08T03:07:00;20.70;99.90
12959;DHT22;6544;51.666;6.634;2023-07-08T03:09:26;20.70;99.90
12959;DHT22;6544;51.666;6.634;2023-07-08T03:11:54;20.70;99.90
12959;DHT22;6544;51.666;6.634;2023-07-08T03:14:21;20.70;99.90
12959;DHT22;6544;51.666;6.634;2023-07-08T03:16:48;20.80;99.90
12959;DHT22;6544;51.666;6.634;2023-07-08T03:19:15;20.70;99.90
12959;DHT22;6544;51.666;6.634;2023-07-08T03:21:42;20.80;99.90
12959;DHT22;6544;51.666;6.634;2023-07-08T03:24:11;20.80;99.90
12959;DHT22;6544;51.666;6.634;2023-07-08T03:26:38;20.80;99.90
12959;DHT22;6544;51.666;6.634;2023-07-08T03:29:05;20.80;99.90
12959;DHT22;6544;51.666;6.634;2023-07-08T03:31:35;20.80;99.90
12959;DHT22;6544;51.666;6.634;2023-07-08T03:34:02;20.80;99.90
12959;DHT22;6544;51.666;6.634;2023-07-08T03:36:29;20.70;99.90
12959;DHT22;6544;51.666;6.634;2023-07-08T03:38:57;20.70;99.90
12959;DHT22;6544;51.666;6.634;2023-07-08T03:41:27;20.50;99.90
12959;DHT22;6544;51.666;6.634;2023-07-08T03:43:54;20.60;99.90
12959;DHT22;6544;51.666;6.634;2023-07-08T03:46:21;20.50;99.90
12959;DHT22;6544;51.666;6.634;2023-07-08T03:48:49;20.50;99.90
12959;DHT22;6544;51.666;6.634;2023-07-08T03:51:21;20.50;99.90
12959;DHT22;6544;51.666;6.634;2023-07-08T03:53:49;20.50;99.90
12959;DHT22;6544;51.666;6.634;2023-07-08T03:56:17;20.50;99.90
12959;DHT22;6544;51.666;6.634;2023-07-08T03:58:45;20.50;99.90
12959;DHT22;6544;51.666;6.634;2023-07-08T04:01:15;20.60;99.90
12959;DHT22;6544;51.666;6.634;2023-07-08T04:03:43;20.50;99.90
12959;DHT22;6544;51.666;6.634;2023-07-08T04:06:10;20.50;99.90
12959;DHT22;6544;51.666;6.634;2023-07-08T04:08:37;20.50;99.90
12959;DHT22;6544;51.666;6.634;2023-07-08T04:11:04;20.50;99.90
12959;DHT22;6544;51.666;6.634;2023-07-08T04:13:31;20.50;99.90
12959;DHT22;6544;51.666;6.634;2023-07-08T04:16:02;20.30;99.90
12959;DHT22;6544;51.666;6.634;2023-07-08T04:18:29;20.20;99.90
12959;DHT22;6544;51.666;6.634;2023-07-08T04:20:57;20.20;99.90
12959;DHT22;6544;51.666;6.634;2023-07-08T04:23:25;20.20;99.90
12959;DHT22;6544;51.666;6.634;2023-07-08T04:25:54;20.20;99.90
12959;DHT22;6544;51.666;6.634;2023-07-08T04:28:22;20.20;99.90
12959;DHT22;6544;51.666;6.634;2023-07-08T04:30:49;20.20;99.90
12959;DHT22;6544;51.666;6.634;2023-07-08T04:33:17;20.30;99.90
12959;DHT22;6544;51.666;6.634;2023-07-08T04:35:45;20.20;99.90
12959;DHT22;6544;51.666;6.634;2023-07-08T04:38:17;20.10;99.90
12959;DHT22;6544;51.666;6.634;2023-07-08T04:40:45;20.20;99.90
12959;DHT22;6544;51.666;6.634;2023-07-08T04:43:11;20.20;99.90
12959;DHT22;6544;51.666;6.634;2023-07-08T04:45:39;20.10;99.90
12959;DHT22;6544;51.666;6.634;2023-07-08T04:48:07;20.00;99.90
12959;DHT22;6544;51.666;6.634;2023-07-08T04:50:40;20.00;99.90
12959;DHT22;6544;51.666;6.634;2023-07-08T04:53:08;20.00;99.90
12959;DHT22;6544;51.666;6.634;2023-07-08T04:55:35;20.10;99.90
12959;DHT22;6544;51.666;6.634;2023-07-08T04:58:02;20.10;99.90
12959;DHT22;6544;51.666;6.634;2023-07-08T05:00:29;20.10;99.90
12959;DHT22;6544;51.666;6.634;2023-07-08T05:02:56;20.20;99.90
12959;DHT22;6544;51.666;6.634;2023-07-08T05:05:23;20.20;99.90
12959;DHT22;6544;51.666;6.634;2023-07-08T05:07:51;20.20;99.90
12959;DHT22;6544;51.666;6.634;2023-07-08T05:10:18;20.30;99.90
12959;DHT22;6544;51.666;6.634;2023-07-08T05:12:47;20.30;99.90
12959;DHT22;6544;51.666;6.634;2023-07-08T05:15:14;20.20;99.90
12959;DHT22;6544;51.666;6.634;2023-07-08T05:17:42;20.20;99.90
12959;DHT22;6544;51.666;6.634;2023-07-08T05:20:12;20.30;99.90
12959;DHT22;6544;51.666;6.634;2023-07-08T05:22:39;20.30;99.90
12959;DHT22;6544;51.666;6.634;2023-07-08T05:25:08;20.30;99.90
12959;DHT22;6544;51.666;6.634;2023-07-08T05:27:35;20.40;99.90
12959;DHT22;6544;51.666;6.634;2023-07-08T05:30:03;20.50;99.90
12959;DHT22;6544;51.666;6.634;2023-07-08T05:32:30;20.40;99.90
12959;DHT22;6544;51.666;6.634;2023-07-08T05:34:57;20.40;99.90
12959;DHT22;6544;51.666;6.634;2023-07-08T05:37:24;20.50;99.90
12959;DHT22;6544;51.666;6.634;2023-07-08T05:39:54;20.60;99.90
12959;DHT22;6544;51.666;6.634;2023-07-08T05:42:22;20.60;99.90
12959;DHT22;6544;51.666;6.634;2023-07-08T05:44:49;20.60;99.90
12959;DHT22;6544;51.666;6.634;2023-07-08T05:47:17;20.50;99.90
12959;DHT22;6544;51.666;6.634;2023-07-08T05:49:44;20.50;99.90
12959;DHT22;6544;51.666;6.634;2023-07-08T05:52:11;20.60;99.90
12959;DHT22;6544;51.666;6.634;2023-07-08T05:54:38;20.70;99.90
12959;DHT22;6544;51.666;6.634;2023-07-08T05:57:07;20.80;99.90
12959;DHT22;6544;51.666;6.634;2023-07-08T05:59:36;20.90;99.90
12959;DHT22;6544;51.666;6.634;2023-07-08T06:02:05;20.90;99.90
12959;DHT22;6544;51.666;6.634;2023-07-08T06:04:33;20.80;99.90
12959;DHT22;6544;51.666;6.634;2023-07-08T06:07:00;20.90;99.90
12959;DHT22;6544;51.666;6.634;2023-07-08T06:09:27;21.00;99.90
12959;DHT22;6544;51.666;6.634;2023-07-08T06:11:53;21.10;99.90
12959;DHT22;6544;51.666;6.634;2023-07-08T06:14:20;21.10;99.90
12959;DHT22;6544;51.666;6.634;2023-07-08T06:16:48;21.20;99.90
12959;DHT22;6544;51.666;6.634;2023-07-08T06:19:15;21.30;99.90
12959;DHT22;6544;51.666;6.634;2023-07-08T06:21:43;21.40;99.90
12959;DHT22;6544;51.666;6.634;2023-07-08T06:24:10;21.40;99.90
12959;DHT22;6544;51.666;6.634;2023-07-08T06:26:36;21.50;99.90
12959;DHT22;6544;51.666;6.634;2023-07-08T06:29:04;21.60;99.90
12959;DHT22;6544;51.666;6.634;2023-07-08T06:31:31;21.70;99.90
12959;DHT22;6544;51.666;6.634;2023-07-08T06:34:00;21.70;99.90
12959;DHT22;6544;51.666;6.634;2023-07-08T06:36:27;21.80;99.90
12959;DHT22;6544;51.666;6.634;2023-07-08T06:38:54;21.90;99.90
12959;DHT22;6544;51.666;6.634;2023-07-08T06:41:21;21.90;99.90
12959;DHT22;6544;51.666;6.634;2023-07-08T06:43:47;21.90;99.90
12959;DHT22;6544;51.666;6.634;2023-07-08T06:46:15;22.10;99.90
12959;DHT22;6544;51.666;6.634;2023-07-08T06:48:42;22.10;99.90
12959;DHT22;6544;51.666;6.634;2023-07-08T06:51:10;22.10;99.90
12959;DHT22;6544;51.666;6.634;2023-07-08T06:53:37;22.20;99.90
12959;DHT22;6544;51.666;6.634;2023-07-08T06:56:04;22.30;99.90
12959;DHT22;6544;51.666;6.634;2023-07-08T06:58:31;22.50;99.90
12959;DHT22;6544;51.666;6.634;2023-07-08T07:00:58;22.50;99.90
12959;DHT22;6544;51.666;6.634;2023-07-08T07:03:25;22.70;99.90
12959;DHT22;6544;51.666;6.634;2023-07-08T07:05:52;22.80;99.90
12959;DHT22;6544;51.666;6.634;2023-07-08T07:08:20;22.90;99.90
12959;DHT22;6544;51.666;6.634;2023-07-08T07:10:47;23.10;99.90
12959;DHT22;6544;51.666;6.634;2023-07-08T07:13:14;23.10;99.90
12959;DHT22;6544;51.666;6.634;2023-07-08T07:15:41;23.20;99.90
12959;DHT22;6544;51.666;6.634;2023-07-08T07:18:07;23.30;99.90
12959;DHT22;6544;51.666;6.634;2023-07-08T07:20:36;23.40;99.90
12959;DHT22;6544;51.666;6.634;2023-07-08T07:23:04;23.40;99.90
12959;DHT22;6544;51.666;6.634;2023-07-08T07:25:32;23.50;99.90
12959;DHT22;6544;51.666;6.634;2023-07-08T07:27:59;23.50;99.90
12959;DHT22;6544;51.666;6.634;2023-07-08T07:30:26;23.60;99.90
12959;DHT22;6544;51.666;6.634;2023-07-08T07:32:53;23.70;99.90
12959;DHT22;6544;51.666;6.634;2023-07-08T07:35:21;23.90;99.90
12959;DHT22;6544;51.666;6.634;2023-07-08T07:37:48;23.90;99.90
12959;DHT22;6544;51.666;6.634;2023-07-08T07:40:15;24.00;99.90
12959;DHT22;6544;51.666;6.634;2023-07-08T07:42:45;24.10;99.90
12959;DHT22;6544;51.666;6.634;2023-07-08T07:45:13;24.30;99.90
12959;DHT22;6544;51.666;6.634;2023-07-08T07:47:40;24.40;99.90
12959;DHT22;6544;51.666;6.634;2023-07-08T07:50:08;24.40;99.90
12959;DHT22;6544;51.666;6.634;2023-07-08T07:52:35;24.60;99.90
12959;DHT22;6544;51.666;6.634;2023-07-08T07:55:03;24.70;99.90
12959;DHT22;6544;51.666;6.634;2023-07-08T07:57:29;24.70;99.90
12959;DHT22;6544;51.666;6.634;2023-07-08T07:59:58;24.90;99.90
12959;DHT22;6544;51.666;6.634;2023-07-08T08:02:25;24.90;99.90
12959;DHT22;6544;51.666;6.634;2023-07-08T08:04:51;25.00;99.90
12959;DHT22;6544;51.666;6.634;2023-07-08T08:07:18;25.10;99.90
12959;DHT22;6544;51.666;6.634;2023-07-08T08:09:45;25.20;99.90
12959;DHT22;6544;51.666;6.634;2023-07-08T08:12:12;25.30;99.90
12959;DHT22;6544;51.666;6.634;2023-07-08T08:14:39;25.40;99.90
12959;DHT22;6544;51.666;6.634;2023-07-08T08:17:08;25.60;99.90
12959;DHT22;6544;51.666;6.634;2023-07-08T08:19:35;25.70;99.90
12959;DHT22;6544;51.666;6.634;2023-07-08T08:22:02;25.80;99.90
12959;DHT22;6544;51.666;6.634;2023-07-08T08:24:29;25.90;99.90
12959;DHT22;6544;51.666;6.634;2023-07-08T08:26:55;26.00;99.90
12959;DHT22;6544;51.666;6.634;2023-07-08T08:29:22;26.10;99.90
12959;DHT22;6544;51.666;6.634;2023-07-08T08:31:49;26.10;99.90
12959;DHT22;6544;51.666;6.634;2023-07-08T08:34:18;26.20;99.90
12959;DHT22;6544;51.666;6.634;2023-07-08T08:36:45;26.30;99.90
12959;DHT22;6544;51.666;6.634;2023-07-08T08:39:12;26.40;99.90
12959;DHT22;6544;51.666;6.634;2023-07-08T08:41:42;26.40;99.90
12959;DHT22;6544;51.666;6.634;2023-07-08T08:44:13;26.50;99.90
12959;DHT22;6544;51.666;6.634;2023-07-08T08:46:45;26.60;99.90
12959;DHT22;6544;51.666;6.634;2023-07-08T08:49:22;26.70;99.90
12959;DHT22;6544;51.666;6.634;2023-07-08T08:51:51;26.80;99.90
12959;DHT22;6544;51.666;6.634;2023-07-08T08:54:18;27.00;99.90
12959;DHT22;6544;51.666;6.634;2023-07-08T08:56:59;27.10;99.90
12959;DHT22;6544;51.666;6.634;2023-07-08T08:59:37;27.20;99.90
12959;DHT22;6544;51.666;6.634;2023-07-08T09:02:23;27.20;99.90
12959;DHT22;6544;51.666;6.634;2023-07-08T09:04:54;27.30;99.90
12959;DHT22;6544;51.666;6.634;2023-07-08T09:07:22;27.40;99.90
12959;DHT22;6544;51.666;6.634;2023-07-08T09:09:55;27.60;99.90
12959;DHT22;6544;51.666;6.634;2023-07-08T09:12:27;27.60;99.90
12959;DHT22;6544;51.666;6.634;2023-07-08T09:14:56;27.80;99.90
12959;DHT22;6544;51.666;6.634;2023-07-08T09:17:27;27.80;99.90
12959;DHT22;6544;51.666;6.634;2023-07-08T09:20:06;27.90;99.90
12959;DHT22;6544;51.666;6.634;2023-07-08T09:22:42;27.90;99.90
12959;DHT22;6544;51.666;6.634;2023-07-08T09:25:23;28.10;99.90
12959;DHT22;6544;51.666;6.634;2023-07-08T09:27:51;28.20;99.90
12959;DHT22;6544;51.666;6.634;2023-07-08T09:30:19;28.30;99.90
12959;DHT22;6544;51.666;6.634;2023-07-08T09:32:47;28.40;99.90
12959;DHT22;6544;51.666;6.634;2023-07-08T09:35:19;28.50;99.90
12959;DHT22;6544;51.666;6.634;2023-07-08T09:37:48;28.50;99.90
12959;DHT22;6544;51.666;6.634;2023-07-08T09:40:18;28.70;99.90
12959;DHT22;6544;51.666;6.634;2023-07-08T09:42:49;28.80;99.90
12959;DHT22;6544;51.666;6.634;2023-07-08T09:45:19;28.90;99.90
12959;DHT22;6544;51.666;6.634;2023-07-08T09:47:46;29.00;99.90
12959;DHT22;6544;51.666;6.634;2023-07-08T09:50:20;28.90;99.90
12959;DHT22;6544;51.666;6.634;2023-07-08T09:52:48;29.00;99.90
12959;DHT22;6544;51.666;6.634;2023-07-08T09:55:18;29.10;99.90
12959;DHT22;6544;51.666;6.634;2023-07-08T09:57:47;29.20;99.90
12959;DHT22;6544;51.666;6.634;2023-07-08T10:00:16;29.20;99.90
12959;DHT22;6544;51.666;6.634;2023-07-08T10:02:45;29.30;99.90
12959;DHT22;6544;51.666;6.634;2023-07-08T10:05:17;29.40;99.90
12959;DHT22;6544;51.666;6.634;2023-07-08T10:07:47;29.50;99.90
12959;DHT22;6544;51.666;6.634;2023-07-08T10:10:17;29.60;99.90
12959;DHT22;6544;51.666;6.634;2023-07-08T10:12:53;29.60;99.90
12959;DHT22;6544;51.666;6.634;2023-07-08T10:15:25;29.70;99.90
12959;DHT22;6544;51.666;6.634;2023-07-08T10:17:53;29.90;99.90
12959;DHT22;6544;51.666;6.634;2023-07-08T10:20:21;30.00;99.90
12959;DHT22;6544;51.666;6.634;2023-07-08T10:23:02;30.10;99.90
12959;DHT22;6544;51.666;6.634;2023-07-08T10:25:45;30.10;99.90
12959;DHT22;6544;51.666;6.634;2023-07-08T10:28:24;30.30;99.90
12959;DHT22;6544;51.666;6.634;2023-07-08T10:31:09;30.40;99.90
12959;DHT22;6544;51.666;6.634;2023-07-08T10:34:00;30.60;99.90
12959;DHT22;6544;51.666;6.634;2023-07-08T10:36:41;30.60;99.90
12959;DHT22;6544;51.666;6.634;2023-07-08T10:39:34;30.70;99.90
12959;DHT22;6544;51.666;6.634;2023-07-08T10:42:08;30.80;99.90
12959;DHT22;6544;51.666;6.634;2023-07-08T10:44:44;30.90;99.90
12959;DHT22;6544;51.666;6.634;2023-07-08T10:47:30;31.00;99.90
12959;DHT22;6544;51.666;6.634;2023-07-08T10:50:11;31.10;99.90
12959;DHT22;6544;51.666;6.634;2023-07-08T10:52:52;31.30;99.90
12959;DHT22;6544;51.666;6.634;2023-07-08T10:55:30;31.40;99.90
12959;DHT22;6544;51.666;6.634;2023-07-08T10:58:19;31.50;99.90
12959;DHT22;6544;51.666;6.634;2023-07-08T11:00:55;31.50;99.90
12959;DHT22;6544;51.666;6.634;2023-07-08T11:03:48;31.60;99.90
12959;DHT22;6544;51.666;6.634;2023-07-08T11:06:22;31.70;99.90
12959;DHT22;6544;51.666;6.634;2023-07-08T11:08:53;31.70;99.90
12959;DHT22;6544;51.666;6.634;2023-07-08T11:11:30;31.80;99.90
12959;DHT22;6544;51.666;6.634;2023-07-08T11:14:12;31.90;99.90
12959;DHT22;6544;51.666;6.634;2023-07-08T11:16:43;32.10;99.90
12959;DHT22;6544;51.666;6.634;2023-07-08T11:19:17;32.20;99.90
12959;DHT22;6544;51.666;6.634;2023-07-08T11:21:47;32.30;99.90
12959;DHT22;6544;51.666;6.634;2023-07-08T11:24:22;32.50;99.90
12959;DHT22;6544;51.666;6.634;2023-07-08T11:26:55;32.60;99.90
12959;DHT22;6544;51.666;6.634;2023-07-08T11:29:26;32.80;99.90
12959;DHT22;6544;51.666;6.634;2023-07-08T11:31:57;32.90;99.90
12959;DHT22;6544;51.666;6.634;2023-07-08T11:34:24;33.00;99.90
12959;DHT22;6544;51.666;6.634;2023-07-08T11:36:54;33.10;99.90
12959;DHT22;6544;51.666;6.634;2023-07-08T11:39:32;33.30;99.90
12959;DHT22;6544;51.666;6.634;2023-07-08T11:44:50;33.60;99.90
12959;DHT22;6544;51.666;6.634;2023-07-08T11:47:24;33.70;99.90
12959;DHT22;6544;51.666;6.634;2023-07-08T11:49:53;33.90;99.90
12959;DHT22;6544;51.666;6.634;2023-07-08T11:52:22;33.90;99.90
12959;DHT22;6544;51.666;6.634;2023-07-08T11:54:56;34.00;99.90
12959;DHT22;6544;51.666;6.634;2023-07-08T11:57:29;34.10;99.90
12959;DHT22;6544;51.666;6.634;2023-07-08T12:00:16;34.20;99.90
12959;DHT22;6544;51.666;6.634;2023-07-08T12:03:12;34.50;99.90
12959;DHT22;6544;51.666;6.634;2023-07-08T12:05:44;34.70;99.90
12959;DHT22;6544;51.666;6.634;2023-07-08T12:08:13;34.90;99.90
12959;DHT22;6544;51.666;6.634;2023-07-08T12:10:42;35.10;99.90
12959;DHT22;6544;51.666;6.634;2023-07-08T12:13:17;35.20;99.90
12959;DHT22;6544;51.666;6.634;2023-07-08T12:15:44;35.30;95.50
12959;DHT22;6544;51.666;6.634;2023-07-08T12:18:15;35.50;96.00
12959;DHT22;6544;51.666;6.634;2023-07-08T12:20:45;35.50;93.90
12959;DHT22;6544;51.666;6.634;2023-07-08T12:23:15;35.50;91.50
12959;DHT22;6544;51.666;6.634;2023-07-08T12:25:42;35.70;93.40
12959;DHT22;6544;51.666;6.634;2023-07-08T12:28:10;35.80;92.40
12959;DHT22;6544;51.666;6.634;2023-07-08T12:30:40;35.90;90.10
12959;DHT22;6544;51.666;6.634;2023-07-08T12:33:12;36.00;90.90
12959;DHT22;6544;51.666;6.634;2023-07-08T12:35:40;36.20;87.70
12959;DHT22;6544;51.666;6.634;2023-07-08T12:38:17;36.40;88.30
12959;DHT22;6544;51.666;6.634;2023-07-08T12:40:45;36.60;85.50
12959;DHT22;6544;51.666;6.634;2023-07-08T12:43:12;36.40;80.20
12959;DHT22;6544;51.666;6.634;2023-07-08T12:45:40;36.40;82.30
12959;DHT22;6544;51.666;6.634;2023-07-08T12:48:09;36.40;75.90
12959;DHT22;6544;51.666;6.634;2023-07-08T12:50:36;36.60;80.10
12959;DHT22;6544;51.666;6.634;2023-07-08T12:53:04;36.80;97.40
12959;DHT22;6544;51.666;6.634;2023-07-08T12:55:36;37.00;76.90
12959;DHT22;6544;51.666;6.634;2023-07-08T12:58:04;36.50;70.60
12959;DHT22;6544;51.666;6.634;2023-07-08T13:00:37;36.50;74.40
12959;DHT22;6544;51.666;6.634;2023-07-08T13:03:11;36.90;71.10
12959;DHT22;6544;51.666;6.634;2023-07-08T13:05:40;37.10;68.30
12959;DHT22;6544;51.666;6.634;2023-07-08T13:08:10;37.40;71.30
12959;DHT22;6544;51.666;6.634;2023-07-08T13:10:37;37.60;69.80
12959;DHT22;6544;51.666;6.634;2023-07-08T13:13:07;37.80;63.70
12959;DHT22;6544;51.666;6.634;2023-07-08T13:15:37;37.70;90.10
12959;DHT22;6544;51.666;6.634;2023-07-08T13:18:14;37.70;65.70
12959;DHT22;6544;51.666;6.634;2023-07-08T13:20:43;37.90;62.40
12959;DHT22;6544;51.666;6.634;2023-07-08T13:23:11;37.90;61.60
12959;DHT22;6544;51.666;6.634;2023-07-08T13:25:38;38.20;58.10
12959;DHT22;6544;51.666;6.634;2023-07-08T13:28:16;38.40;56.70
12959;DHT22;6544;51.666;6.634;2023-07-08T13:30:50;38.30;56.40
12959;DHT22;6544;51.666;6.634;2023-07-08T13:33:20;38.20;53.70
12959;DHT22;6544;51.666;6.634;2023-07-08T13:35:48;38.00;51.10
12959;DHT22;6544;51.666;6.634;2023-07-08T13:38:16;37.60;52.40
12959;DHT22;6544;51.666;6.634;2023-07-08T13:40:45;37.50;54.20
12959;DHT22;6544;51.666;6.634;2023-07-08T13:43:14;38.10;53.70
12959;DHT22;6544;51.666;6.634;2023-07-08T13:45:45;38.40;54.00
12959;DHT22;6544;51.666;6.634;2023-07-08T13:48:21;38.30;52.20
12959;DHT22;6544;51.666;6.634;2023-07-08T13:50:53;38.70;76.50
12959;DHT22;6544;51.666;6.634;2023-07-08T13:53:24;38.50;47.10
12959;DHT22;6544;51.666;6.634;2023-07-08T13:56:00;38.20;48.70
12959;DHT22;6544;51.666;6.634;2023-07-08T13:58:28;38.20;48.80
12959;DHT22;6544;51.666;6.634;2023-07-08T14:00:56;37.90;47.20
12959;DHT22;6544;51.666;6.634;2023-07-08T14:03:25;37.70;49.40
12959;DHT22;6544;51.666;6.634;2023-07-08T14:05:52;37.50;48.00
12959;DHT22;6544;51.666;6.634;2023-07-08T14:08:19;37.10;47.40
12959;DHT22;6544;51.666;6.634;2023-07-08T14:10:47;37.00;52.30
12959;DHT22;6544;51.666;6.634;2023-07-08T14:13:14;36.70;50.20
12959;DHT22;6544;51.666;6.634;2023-07-08T14:15:43;36.80;53.20
12959;DHT22;6544;51.666;6.634;2023-07-08T14:18:12;36.70;53.20
12959;DHT22;6544;51.666;6.634;2023-07-08T14:20:41;36.70;53.90
12959;DHT22;6544;51.666;6.634;2023-07-08T14:23:09;36.50;52.80
12959;DHT22;6544;51.666;6.634;2023-07-08T14:25:38;36.40;53.70
12959;DHT22;6544;51.666;6.634;2023-07-08T14:28:05;36.30;53.50
12959;DHT22;6544;51.666;6.634;2023-07-08T14:30:33;36.10;52.80
12959;DHT22;6544;51.666;6.634;2023-07-08T14:33:01;36.10;55.10
12959;DHT22;6544;51.666;6.634;2023-07-08T14:35:29;36.10;54.50
12959;DHT22;6544;51.666;6.634;2023-07-08T14:37:57;35.90;52.80
12959;DHT22;6544;51.666;6.634;2023-07-08T14:40:27;35.70;53.80
12959;DHT22;6544;51.666;6.634;2023-07-08T14:42:58;35.40;53.10
12959;DHT22;6544;51.666;6.634;2023-07-08T14:45:26;35.40;58.20
12959;DHT22;6544;51.666;6.634;2023-07-08T14:47:54;35.40;58.20
12959;DHT22;6544;51.666;6.634;2023-07-08T14:50:21;35.40;54.90
12959;DHT22;6544;51.666;6.634;2023-07-08T14:52:51;35.20;56.30
12959;DHT22;6544;51.666;6.634;2023-07-08T14:55:19;35.20;57.00
12959;DHT22;6544;51.666;6.634;2023-07-08T14:57:47;35.10;56.50
12959;DHT22;6544;51.666;6.634;2023-07-08T15:00:17;35.00;58.10
12959;DHT22;6544;51.666;6.634;2023-07-08T15:02:47;35.00;57.60
12959;DHT22;6544;51.666;6.634;2023-07-08T15:05:19;34.90;59.00
12959;DHT22;6544;51.666;6.634;2023-07-08T15:07:48;34.80;59.20
12959;DHT22;6544;51.666;6.634;2023-07-08T15:10:16;34.70;59.50
12959;DHT22;6544;51.666;6.634;2023-07-08T15:12:45;34.70;61.80
12959;DHT22;6544;51.666;6.634;2023-07-08T15:15:18;34.60;59.30
12959;DHT22;6544;51.666;6.634;2023-07-08T15:17:48;34.40;59.20
12959;DHT22;6544;51.666;6.634;2023-07-08T15:20:15;34.30;60.40
12959;DHT22;6544;51.666;6.634;2023-07-08T15:22:43;34.20;59.50
12959;DHT22;6544;51.666;6.634;2023-07-08T15:25:11;34.20;62.40
12959;DHT22;6544;51.666;6.634;2023-07-08T15:27:39;34.30;62.90
12959;DHT22;6544;51.666;6.634;2023-07-08T15:30:16;34.20;64.00
12959;DHT22;6544;51.666;6.634;2023-07-08T15:32:44;34.30;64.00
12959;DHT22;6544;51.666;6.634;2023-07-08T15:35:13;34.30;65.40
12959;DHT22;6544;51.666;6.634;2023-07-08T15:37:41;34.20;66.30
12959;DHT22;6544;51.666;6.634;2023-07-08T15:40:09;34.20;66.50
12959;DHT22;6544;51.666;6.634;2023-07-08T15:42:36;34.20;66.90
12959;DHT22;6544;51.666;6.634;2023-07-08T15:45:14;34.10;65.30
12959;DHT22;6544;51.666;6.634;2023-07-08T15:47:42;34.00;63.30
12959;DHT22;6544;51.666;6.634;2023-07-08T15:50:11;34.00;64.10
12959;DHT22;6544;51.666;6.634;2023-07-08T15:52:38;33.90;66.10
12959;DHT22;6544;51.666;6.634;2023-07-08T15:55:06;34.00;63.80
12959;DHT22;6544;51.666;6.634;2023-07-08T15:57:34;33.90;65.80
12959;DHT22;6544;51.666;6.634;2023-07-08T16:00:03;33.90;91.40
12959;DHT22;6544;51.666;6.634;2023-07-08T16:02:33;33.90;64.10